Time;durP1;ratioP1;P1;durP2;ratioP2;P2;SDS_P1;SDS_P2;PMS_P1;PMS_P2;Temp;Humidity;BMP_temperature;BMP_pressure;BME280_temperature;BME280_humidity;BME280_pressure;Samples;Min_cycle;Max_cycle;Signal;HPM_P1;HPM_P2
2023/02/28 00:01:45;;;;;;;7.25;4.10;;;;;;;15.72;35.18;101298.72;5071196;28;20045;-68
2023/02/28 00:04:13;;;;;;;6.55;3.75;;;;;;;15.68;35.35;101302.56;5071241;28;20075;-67
2023/02/28 00:06:41;;;;;;;7.15;4.30;;;;;;;15.64;35.31;101307.31;5071084;28;20485;-67
2023/02/28 00:09:10;;;;;;;7.53;3.85;;;;;;;15.62;35.38;101311.03;5071157;28;20079;-67
2023/02/28 00:11:39;;;;;;;6.57;4.10;;;;;;;15.57;35.43;101314.00;5074913;28;20514;-67
2023/02/28 00:14:08;;;;;;;6.70;3.80;;;;;;;15.54;35.27;101313.31;5074903;28;20048;-67
2023/02/28 00:16:36;;;;;;;6.72;4.38;;;;;;;15.53;35.21;101325.03;5074870;28;20397;-67
2023/02/28 00:19:04;;;;;;;6.80;4.50;;;;;;;15.49;35.33;101324.38;5074839;28;20037;-68
2023/02/28 00:21:32;;;;;;;7.53;4.45;;;;;;;15.46;35.37;101325.44;5074705;28;20053;-66
2023/02/28 00:24:00;;;;;;;7.47;4.53;;;;;;;15.44;35.34;101332.75;5074700;28;20378;-67
2023/02/28 00:26:29;;;;;;;8.07;4.90;;;;;;;15.40;35.41;101333.88;5074706;28;20040;-66
2023/02/28 00:28:58;;;;;;;8.02;4.70;;;;;;;15.38;35.37;101330.44;5074537;28;20538;-68
2023/02/28 00:31:26;;;;;;;7.55;4.43;;;;;;;15.35;35.50;101329.78;5075860;28;20511;-66
2023/02/28 00:33:55;;;;;;;6.95;4.05;;;;;;;15.34;35.37;101336.09;5074447;28;20072;-67
2023/02/28 00:36:24;;;;;;;7.45;4.20;;;;;;;15.31;35.40;101342.53;5074309;28;20059;-67
2023/02/28 00:38:52;;;;;;;8.35;4.47;;;;;;;15.29;35.36;101344.44;5074039;28;20557;-67
2023/02/28 00:41:20;;;;;;;8.32;4.85;;;;;;;15.24;35.54;101335.78;5075870;28;20121;-68
2023/02/28 00:43:48;;;;;;;7.25;5.00;;;;;;;15.20;35.60;101333.41;5076202;28;20725;-68
2023/02/28 00:46:18;;;;;;;8.35;4.80;;;;;;;15.20;35.42;101344.16;5076799;28;20044;-67
2023/02/28 00:48:46;;;;;;;8.18;5.05;;;;;;;15.20;35.30;101349.53;5075046;28;20116;-67
2023/02/28 00:51:15;;;;;;;7.70;4.57;;;;;;;15.15;35.51;101345.31;5074367;28;20048;-67
2023/02/28 00:53:43;;;;;;;8.20;5.15;;;;;;;15.13;35.55;101343.66;5074146;28;20572;-67
2023/02/28 00:56:11;;;;;;;6.97;4.57;;;;;;;15.10;35.51;101349.25;5074165;28;20047;-66
2023/02/28 00:58:39;;;;;;;8.23;4.70;;;;;;;15.08;35.46;101346.66;5073990;28;20497;-68
2023/02/28 01:01:08;;;;;;;8.77;5.07;;;;;;;15.05;35.50;101345.94;5073725;28;20051;-69
2023/02/28 01:03:38;;;;;;;8.55;5.07;;;;;;;15.03;35.56;101350.56;5074001;28;20068;-67
2023/02/28 01:06:06;;;;;;;8.27;4.68;;;;;;;15.02;35.58;101351.53;5073800;28;20175;-66
2023/02/28 01:08:35;;;;;;;7.47;4.82;;;;;;;14.97;35.66;101348.28;5073745;28;20543;-68
2023/02/28 01:11:09;;;;;;;8.98;5.63;;;;;;;14.97;35.74;101348.28;5073710;28;20049;-66
2023/02/28 01:13:38;;;;;;;8.20;5.07;;;;;;;14.95;35.59;101355.53;5073598;28;20044;-66
2023/02/28 01:16:07;;;;;;;8.85;4.85;;;;;;;14.94;35.62;101346.63;5073720;28;20123;-66
2023/02/28 01:18:36;;;;;;;8.73;5.25;;;;;;;14.89;35.71;101343.38;5073600;28;20082;-66
2023/02/28 01:21:07;;;;;;;8.60;5.30;;;;;;;14.87;35.80;101350.66;5072998;28;20078;-67
2023/02/28 01:23:35;;;;;;;9.13;4.85;;;;;;;14.84;35.70;101349.00;5073448;28;20493;-66
2023/02/28 01:26:07;;;;;;;8.13;5.15;;;;;;;14.82;35.73;101355.44;5073396;28;20469;-67
2023/02/28 01:28:36;;;;;;;7.65;4.90;;;;;;;14.80;35.76;101344.78;5073577;28;20064;-68
2023/02/28 01:31:05;;;;;;;9.45;5.32;;;;;;;14.78;35.83;101351.22;5073357;28;20071;-67
2023/02/28 01:33:34;;;;;;;8.75;5.15;;;;;;;14.74;35.78;101350.50;5073162;28;20044;-67
2023/02/28 01:36:04;;;;;;;8.10;4.75;;;;;;;14.74;35.78;101353.19;5073175;28;20422;-69
2023/02/28 01:38:34;;;;;;;8.80;5.28;;;;;;;14.73;35.88;101356.84;5072911;28;20062;-67
2023/02/28 01:41:03;;;;;;;8.73;5.18;;;;;;;14.71;35.76;101364.13;5073135;28;20048;-67
2023/02/28 01:43:52;;;;;;;8.15;4.80;;;;;;;14.59;35.70;101338.03;5073039;28;20569;-66
2023/02/28 01:46:20;;;;;;;9.60;5.30;;;;;;;14.66;35.76;101352.78;5073131;28;20486;-66
2023/02/28 01:48:52;;;;;;;9.27;5.43;;;;;;;14.65;35.88;101350.19;5072785;28;20090;-67
2023/02/28 01:51:26;;;;;;;8.70;5.40;;;;;;;14.62;35.90;101348.56;5072767;28;20048;-67
2023/02/28 01:54:00;;;;;;;8.98;5.18;;;;;;;14.58;35.93;101347.91;5072959;28;20486;-66
2023/02/28 01:56:34;;;;;;;8.70;4.93;;;;;;;14.60;35.88;101355.84;5072697;28;20066;-66
2023/02/28 01:59:03;;;;;;;9.32;5.00;;;;;;;14.55;35.86;101353.44;5072838;28;20162;-68
2023/02/28 02:01:32;;;;;;;9.00;5.55;;;;;;;14.54;35.93;101350.84;5073350;28;20108;-66
2023/02/28 02:04:03;;;;;;;7.43;4.40;;;;;;;14.53;35.99;101354.47;5072805;28;20624;-66
2023/02/28 02:06:39;;;;;;;9.68;5.30;;;;;;;14.52;35.83;101342.88;5072823;28;20052;-66
2023/02/28 02:09:09;;;;;;;7.25;4.80;;;;;;;14.49;35.84;101344.91;5072497;28;20051;-67
2023/02/28 02:11:40;;;;;;;7.70;5.13;;;;;;;14.49;35.92;101347.56;5072440;28;20051;-67
2023/02/28 02:14:34;;;;;;;9.30;5.40;;;;;;;14.46;36.08;101345.91;5072525;28;20048;-67
2023/02/28 02:17:16;;;;;;;8.00;5.25;;;;;;;14.44;35.85;101349.63;5072590;28;20042;-67
2023/02/28 02:20:20;;;;;;;9.40;5.47;;;;;;;14.42;35.95;101343.50;5072221;28;20055;-68
2023/02/28 02:23:09;;;;;;;7.80;4.90;;;;;;;14.40;36.00;101348.94;5048245;28;20309;-67
2023/02/28 02:25:43;;;;;;;8.88;5.07;;;;;;;14.35;36.17;101336.75;5072576;28;20094;-67
2023/02/28 02:28:52;;;;;;;8.85;5.00;;;;;;;14.37;36.05;101337.50;5072290;28;20064;-67
2023/02/28 02:31:34;;;;;;;9.63;5.32;;;;;;;14.35;36.15;101339.41;5042280;28;20079;-67
2023/02/28 02:34:27;;;;;;;8.20;4.60;;;;;;;14.32;36.07;101344.03;5071180;28;20094;-66
2023/02/28 02:37:06;;;;;;;7.00;4.93;;;;;;;14.31;35.96;101342.28;5072101;28;20052;-67
2023/02/28 02:39:44;;;;;;;8.80;5.50;;;;;;;14.28;36.02;101339.81;5072254;28;20068;-67
2023/02/28 02:42:18;;;;;;;8.07;4.80;;;;;;;14.25;36.10;101339.97;5072122;28;20041;-67
2023/02/28 02:44:53;;;;;;;10.18;5.50;;;;;;;14.24;36.04;101337.38;5072048;28;20044;-67
2023/02/28 02:47:25;;;;;;;7.75;5.15;;;;;;;14.24;36.13;101345.41;5072000;28;20044;-67
2023/02/28 02:49:58;;;;;;;7.85;4.88;;;;;;;14.22;35.84;101348.19;5071780;28;20052;-67
2023/02/28 02:52:35;;;;;;;7.88;4.97;;;;;;;14.20;35.96;101347.44;5071925;28;20045;-67
2023/02/28 02:55:06;;;;;;;7.10;4.75;;;;;;;14.19;36.22;101345.69;5072220;28;20098;-67
2023/02/28 02:57:39;;;;;;;8.27;4.82;;;;;;;14.18;36.03;101348.44;5071888;28;20076;-67
2023/02/28 03:00:12;;;;;;;9.00;5.35;;;;;;;14.12;36.05;101338.97;5071705;28;20127;-67
2023/02/28 03:02:42;;;;;;;9.25;5.35;;;;;;;14.15;35.96;101337.91;5072288;28;20098;-67
2023/02/28 03:05:19;;;;;;;8.82;5.30;;;;;;;14.13;36.20;101348.72;5071870;28;20139;-67
2023/02/28 03:07:48;;;;;;;8.63;5.18;;;;;;;14.13;36.00;101345.19;5071704;28;20539;-67
2023/02/28 03:10:34;;;;;;;7.95;5.20;;;;;;;14.10;36.00;101350.72;5071816;28;20048;-67
2023/02/28 03:13:26;;;;;;;7.00;5.05;;;;;;;14.09;36.20;101348.97;5071740;28;20473;-66
2023/02/28 03:16:11;;;;;;;9.32;5.30;;;;;;;14.08;36.15;101357.97;5031683;28;20056;-67
2023/02/28 03:18:53;;;;;;;8.27;5.18;;;;;;;14.07;36.10;101350.88;5071757;28;20171;-67
2023/02/28 03:21:32;;;;;;;7.50;4.82;;;;;;;14.05;36.09;101359.03;5071713;28;20048;-67
2023/02/28 03:24:07;;;;;;;8.25;5.13;;;;;;;14.04;36.18;101365.34;5071590;28;20071;-68
2023/02/28 03:26:40;;;;;;;8.15;4.80;;;;;;;14.00;36.14;101353.09;5071792;28;20083;-67
2023/02/28 03:29:17;;;;;;;8.35;4.70;;;;;;;13.99;36.03;101357.59;5071669;28;20047;-67
2023/02/28 03:31:51;;;;;;;6.65;4.53;;;;;;;13.97;36.05;101355.91;5071543;28;20044;-67
2023/02/28 03:34:25;;;;;;;8.20;4.70;;;;;;;13.95;36.35;101357.81;5071661;28;20468;-66
2023/02/28 03:37:03;;;;;;;7.93;4.95;;;;;;;13.95;36.17;101356.00;5071566;28;20060;-68
2023/02/28 03:39:38;;;;;;;8.13;4.93;;;;;;;13.93;36.25;101355.22;5071313;28;20456;-67
2023/02/28 03:42:12;;;;;;;8.35;4.93;;;;;;;13.93;36.41;101355.22;5071216;28;20094;-66
2023/02/28 03:44:44;;;;;;;7.80;4.80;;;;;;;13.91;36.39;101350.91;5072231;28;20056;-67
2023/02/28 03:47:16;;;;;;;8.63;5.10;;;;;;;13.90;36.34;101354.56;5075221;28;20072;-66
2023/02/28 03:49:49;;;;;;;8.18;5.07;;;;;;;13.88;36.17;101356.44;5075191;28;20051;-68
2023/02/28 03:52:21;;;;;;;8.40;5.25;;;;;;;13.88;36.16;101353.75;5075238;28;20090;-67
2023/02/28 03:54:53;;;;;;;7.13;4.70;;;;;;;13.86;36.14;101359.22;5075076;28;20051;-67
2023/02/28 03:57:28;;;;;;;8.13;4.82;;;;;;;13.86;36.36;101358.34;5075037;28;20082;-67
2023/02/28 04:00:00;;;;;;;8.48;5.13;;;;;;;13.85;36.30;101356.63;5074978;28;20052;-66
2023/02/28 04:02:31;;;;;;;10.02;5.18;;;;;;;13.82;36.29;101354.97;5074894;28;20144;-67
2023/02/28 04:05:01;;;;;;;8.63;4.80;;;;;;;13.78;36.47;101349.84;5074841;28;20044;-67
2023/02/28 04:07:31;;;;;;;7.13;4.60;;;;;;;13.81;36.21;101349.72;5075120;28;20185;-67
2023/02/28 04:10:00;;;;;;;7.35;4.82;;;;;;;13.78;36.32;101352.53;5074806;28;20045;-67
2023/02/28 04:12:28;;;;;;;8.10;5.07;;;;;;;13.77;36.19;101348.13;5074796;28;20049;-67
2023/02/28 04:14:57;;;;;;;7.60;5.03;;;;;;;13.74;36.33;101343.81;5074996;28;20122;-67
2023/02/28 04:17:25;;;;;;;7.55;4.80;;;;;;;13.77;36.31;101353.50;5074573;28;20044;-67
2023/02/28 04:19:53;;;;;;;8.00;4.70;;;;;;;13.73;36.49;101348.31;5074638;28;20460;-66
2023/02/28 04:22:22;;;;;;;7.65;4.57;;;;;;;13.73;36.51;101350.13;5074515;28;20044;-67
2023/02/28 04:24:53;;;;;;;6.30;4.00;;;;;;;13.72;36.30;101343.03;5074493;28;20056;-67
2023/02/28 04:27:22;;;;;;;7.32;4.65;;;;;;;13.71;36.44;101344.00;5074500;28;20055;-67
2023/02/28 04:29:50;;;;;;;6.90;4.63;;;;;;;13.70;36.25;101345.81;5074559;28;20086;-67
2023/02/28 04:32:18;;;;;;;6.53;4.28;;;;;;;13.69;36.35;101337.84;5074376;28;20040;-67
2023/02/28 04:34:49;;;;;;;7.18;4.32;;;;;;;13.65;36.57;101339.81;5074368;28;20052;-67
2023/02/28 04:37:19;;;;;;;8.45;4.80;;;;;;;13.63;36.09;101336.38;5074261;28;20083;-67
2023/02/28 04:39:49;;;;;;;7.40;4.70;;;;;;;13.69;36.61;101341.38;5074461;28;20074;-67
2023/02/28 04:42:18;;;;;;;9.00;4.82;;;;;;;13.72;36.80;101338.53;5074366;28;20040;-68
2023/02/28 04:44:47;;;;;;;7.03;4.50;;;;;;;13.78;36.84;101339.13;5074291;28;20047;-68
2023/02/28 04:47:15;;;;;;;6.85;4.55;;;;;;;13.86;36.98;101337.75;5074384;28;20041;-68
2023/02/28 04:49:44;;;;;;;7.18;4.40;;;;;;;13.97;37.00;101342.50;5074271;28;20049;-67
2023/02/28 04:52:13;;;;;;;6.63;3.97;;;;;;;14.06;36.89;101338.44;5074302;28;20045;-66
2023/02/28 04:54:41;;;;;;;8.25;4.57;;;;;;;14.17;36.85;101336.84;5075263;28;20064;-67
2023/02/28 04:57:09;;;;;;;7.60;4.53;;;;;;;14.24;36.84;101338.22;5073871;28;20045;-66
2023/02/28 04:59:39;;;;;;;6.97;4.38;;;;;;;14.37;36.73;101337.50;5074983;28;20405;-67
2023/02/28 05:02:08;;;;;;;6.90;4.05;;;;;;;14.47;36.69;101334.22;5074566;28;20094;-67
2023/02/28 05:04:37;;;;;;;7.18;4.38;;;;;;;14.60;36.60;101334.38;5074418;28;20048;-67
2023/02/28 05:07:05;;;;;;;7.40;4.82;;;;;;;14.71;36.51;101336.41;5074390;28;20040;-67
2023/02/28 05:09:34;;;;;;;7.45;4.55;;;;;;;14.81;36.29;101337.59;5073908;28;20048;-67
2023/02/28 05:12:03;;;;;;;7.10;4.28;;;;;;;14.92;36.32;101342.31;5073784;28;20378;-67
2023/02/28 05:14:31;;;;;;;7.45;4.45;;;;;;;15.02;36.21;101338.97;5073870;28;20397;-66
2023/02/28 05:17:01;;;;;;;7.57;4.32;;;;;;;15.12;36.14;101348.19;5074079;28;20129;-67
2023/02/28 05:19:29;;;;;;;7.05;4.32;;;;;;;15.21;36.05;101341.38;5074305;28;20136;-66
2023/02/28 05:21:57;;;;;;;7.15;4.18;;;;;;;15.36;36.01;101353.00;5073854;28;20135;-67
2023/02/28 05:24:26;;;;;;;7.90;4.32;;;;;;;15.46;35.90;101349.63;5073836;28;20504;-67
2023/02/28 05:26:55;;;;;;;7.05;4.50;;;;;;;15.58;35.89;101349.81;5073838;28;20044;-67
2023/02/28 05:29:23;;;;;;;7.05;4.03;;;;;;;15.69;35.68;101348.19;5074145;28;20037;-67
2023/02/28 05:31:51;;;;;;;8.32;4.47;;;;;;;15.78;35.53;101341.34;5073982;28;20060;-67
2023/02/28 05:34:21;;;;;;;7.15;4.22;;;;;;;15.87;35.38;101351.53;5073781;28;20040;-67
2023/02/28 05:36:52;;;;;;;6.35;4.00;;;;;;;15.92;35.44;101349.41;5073921;28;20044;-67
2023/02/28 05:39:21;;;;;;;6.82;4.25;;;;;;;15.97;35.34;101354.47;5074128;28;20135;-67
2023/02/28 05:41:52;;;;;;;6.70;4.03;;;;;;;16.02;35.32;101349.69;5074016;28;20402;-67
2023/02/28 05:44:20;;;;;;;7.03;4.38;;;;;;;16.03;35.38;101352.25;5073595;28;20048;-67
2023/02/28 05:46:48;;;;;;;7.32;4.07;;;;;;;16.06;35.36;101353.88;5073788;28;20581;-67
2023/02/28 05:49:16;;;;;;;6.45;4.10;;;;;;;16.08;35.21;101353.78;5074291;28;20115;-67
2023/02/28 05:51:46;;;;;;;6.75;4.30;;;;;;;16.13;35.22;101365.13;5073801;28;20474;-67
2023/02/28 05:54:15;;;;;;;6.45;4.05;;;;;;;16.16;35.14;101364.91;5073371;28;20131;-67
2023/02/28 05:56:45;;;;;;;7.03;4.18;;;;;;;16.19;35.17;101365.56;5072182;28;20045;-67
2023/02/28 05:59:14;;;;;;;6.57;4.13;;;;;;;16.23;35.15;101359.03;5073512;28;20044;-66
2023/02/28 06:01:47;;;;;;;7.32;4.18;;;;;;;16.30;35.12;101363.00;5073347;28;20118;-67
2023/02/28 06:04:18;;;;;;;7.25;4.20;;;;;;;16.33;35.11;101361.97;5073109;28;20044;-67
2023/02/28 06:07:01;;;;;;;7.38;4.38;;;;;;;16.42;34.99;101369.44;5075459;28;20101;-70
2023/02/28 06:09:31;;;;;;;6.50;3.85;;;;;;;16.42;35.12;101369.44;5082139;28;20090;-68
2023/02/28 06:12:00;;;;;;;6.80;4.47;;;;;;;16.44;34.92;101366.63;5083121;28;20044;-67
2023/02/28 06:14:28;;;;;;;8.00;4.05;;;;;;;16.41;34.97;101373.09;5073744;28;20048;-67
2023/02/28 06:16:57;;;;;;;6.97;4.05;;;;;;;16.41;34.96;101378.47;5072400;28;20090;-65
2023/02/28 06:19:26;;;;;;;7.57;4.68;;;;;;;16.40;35.06;101381.25;5072828;28;20040;-66
2023/02/28 06:21:56;;;;;;;6.60;3.72;;;;;;;16.37;35.08;101376.06;5072497;28;20058;-67
2023/02/28 06:24:28;;;;;;;7.38;4.10;;;;;;;16.32;35.02;101384.47;5072319;28;20093;-67
2023/02/28 06:27:04;;;;;;;7.20;4.10;;;;;;;16.29;35.07;101379.28;5072698;28;20051;-68
2023/02/28 06:29:33;;;;;;;6.55;3.97;;;;;;;16.27;35.20;101389.28;5073520;28;20089;-66
2023/02/28 06:32:02;;;;;;;8.75;4.13;;;;;;;16.24;35.22;101381.41;5073407;28;20049;-66
2023/02/28 06:34:30;;;;;;;6.63;4.07;;;;;;;16.20;35.17;101390.66;5073807;28;20110;-65
2023/02/28 06:37:01;;;;;;;5.80;4.03;;;;;;;16.16;35.20;101387.31;5072854;28;20524;-68
2023/02/28 06:39:31;;;;;;;7.07;4.25;;;;;;;16.13;35.37;101386.66;5071837;28;20174;-68
2023/02/28 06:41:59;;;;;;;6.22;3.97;;;;;;;16.08;35.35;101383.38;5061482;28;20043;-67
2023/02/28 06:44:35;;;;;;;7.35;3.80;;;;;;;16.02;35.40;101387.34;5067994;28;20107;-68
2023/02/28 06:47:04;;;;;;;6.88;4.32;;;;;;;16.02;35.34;101400.81;5053676;28;20067;-68
2023/02/28 06:49:34;;;;;;;6.88;4.05;;;;;;;15.98;35.40;101397.44;5056211;28;20122;-68
2023/02/28 06:52:03;;;;;;;7.00;4.07;;;;;;;15.93;35.76;101399.56;5073592;28;20075;-68
2023/02/28 06:54:33;;;;;;;7.82;4.93;;;;;;;15.90;35.30;101394.38;5073278;28;20051;-69
2023/02/28 06:57:01;;;;;;;8.25;4.30;;;;;;;15.86;35.29;101392.84;5074583;28;20044;-68
2023/02/28 06:59:29;;;;;;;6.18;4.07;;;;;;;15.83;34.92;101387.69;5077085;28;20048;-66
2023/02/28 07:01:58;;;;;;;6.57;3.85;;;;;;;15.81;34.92;101392.25;5076872;28;20045;-66
2023/02/28 07:04:26;;;;;;;6.57;3.88;;;;;;;15.76;35.09;101394.41;5073458;28;20075;-66
2023/02/28 07:06:55;;;;;;;8.88;4.13;;;;;;;15.74;35.26;101397.19;5054362;28;20466;-67
2023/02/28 07:09:24;;;;;;;6.68;4.10;;;;;;;15.70;35.42;101403.72;5056066;28;20098;-67
2023/02/28 07:11:53;;;;;;;6.88;4.28;;;;;;;15.67;35.46;101400.38;5071645;28;20041;-66
2023/02/28 07:14:21;;;;;;;7.43;3.97;;;;;;;15.64;35.54;101414.00;5070880;28;20040;-68
2023/02/28 07:16:50;;;;;;;7.50;4.00;;;;;;;15.60;35.52;101407.94;5071487;28;20044;-68
2023/02/28 07:19:18;;;;;;;7.43;4.18;;;;;;;15.58;35.67;101414.34;5071772;28;20048;-67
2023/02/28 07:21:46;;;;;;;6.28;3.72;;;;;;;15.52;35.66;101412.03;5074518;28;20048;-67
2023/02/28 07:24:17;;;;;;;6.47;4.00;;;;;;;15.50;35.92;101417.50;5075633;28;20040;-67
2023/02/28 07:26:46;;;;;;;6.72;4.10;;;;;;;15.47;35.99;101415.03;5075680;28;20127;-66
2023/02/28 07:29:15;;;;;;;7.00;3.63;;;;;;;15.46;36.08;101422.22;5075487;28;20413;-68
2023/02/28 07:31:44;;;;;;;6.78;3.90;;;;;;;15.44;36.11;101418.78;5075459;28;20045;-68
2023/02/28 07:34:12;;;;;;;6.68;3.92;;;;;;;15.40;36.12;101422.59;5075355;28;20070;-67
2023/02/28 07:36:40;;;;;;;6.57;4.00;;;;;;;15.39;36.03;101425.38;5075418;28;20123;-67
2023/02/28 07:39:10;;;;;;;6.75;3.85;;;;;;;15.37;36.14;101422.81;5074921;28;20053;-68
2023/02/28 07:41:43;;;;;;;7.45;4.07;;;;;;;15.36;35.99;101425.59;5075461;28;20052;-68
2023/02/28 07:44:11;;;;;;;6.72;3.67;;;;;;;15.33;36.26;101432.00;5075358;28;20552;-67
2023/02/28 07:46:41;;;;;;;6.30;4.07;;;;;;;15.33;36.20;101431.13;5075532;28;20071;-68
2023/02/28 07:49:09;;;;;;;7.38;3.70;;;;;;;15.28;36.08;101423.38;5074915;28;20568;-67
2023/02/28 07:51:42;;;;;;;6.68;3.85;;;;;;;15.27;36.32;101427.00;5075182;28;20470;-68
2023/02/28 07:54:10;;;;;;;6.70;3.78;;;;;;;15.24;36.19;101427.19;5074975;28;20047;-67
2023/02/28 07:56:38;;;;;;;9.88;4.35;;;;;;;15.23;36.51;101430.81;5074964;28;20076;-67
2023/02/28 07:59:06;;;;;;;6.60;3.88;;;;;;;15.22;36.22;101434.47;5074764;28;20563;-68
2023/02/28 08:01:35;;;;;;;6.78;3.97;;;;;;;15.18;36.18;101427.56;5075024;28;20045;-67
2023/02/28 08:04:04;;;;;;;5.82;3.35;;;;;;;15.17;36.19;101431.22;5075126;28;20055;-67
2023/02/28 08:06:33;;;;;;;7.05;3.80;;;;;;;15.16;36.06;101424.97;5074942;28;20044;-68
2023/02/28 08:09:01;;;;;;;6.15;3.40;;;;;;;15.15;36.11;101422.34;5074638;28;20082;-67
2023/02/28 08:11:29;;;;;;;6.80;3.80;;;;;;;15.15;36.31;101425.03;5074672;28;20178;-67
2023/02/28 08:13:58;;;;;;;5.80;3.60;;;;;;;15.14;36.35;101426.00;5074682;28;20500;-67
2023/02/28 08:16:26;;;;;;;8.10;3.95;;;;;;;15.13;36.24;101424.28;5074609;28;20186;-67
2023/02/28 08:18:55;;;;;;;7.32;4.05;;;;;;;15.13;36.40;101429.66;5074689;28;20394;-67
2023/02/28 08:21:25;;;;;;;6.50;3.60;;;;;;;15.10;36.31;101424.47;5074557;28;20044;-67
2023/02/28 08:23:53;;;;;;;7.38;3.78;;;;;;;15.09;36.51;101428.13;5074504;28;20080;-67
2023/02/28 08:26:22;;;;;;;6.57;3.58;;;;;;;15.09;36.46;101425.44;5074345;28;20045;-67
2023/02/28 08:28:50;;;;;;;7.72;4.18;;;;;;;15.09;36.43;101433.50;5074441;28;20105;-67
2023/02/28 08:31:19;;;;;;;6.18;3.88;;;;;;;15.08;36.45;101429.09;5074366;28;20044;-67
2023/02/28 08:33:48;;;;;;;8.40;3.70;;;;;;;15.06;36.39;101418.44;5074561;28;20063;-68
2023/02/28 08:36:16;;;;;;;6.35;3.80;;;;;;;15.07;36.47;101430.91;5074496;28;20048;-68
2023/02/28 08:38:46;;;;;;;6.13;3.72;;;;;;;15.05;36.28;101413.13;5074110;28;20059;-67
2023/02/28 08:41:15;;;;;;;5.70;3.38;;;;;;;15.05;36.45;101427.44;5075591;28;20047;-66
2023/02/28 08:43:43;;;;;;;7.07;3.83;;;;;;;15.05;36.54;101431.94;5079248;28;20044;-68
2023/02/28 08:46:13;;;;;;;6.15;3.20;;;;;;;15.04;36.41;101430.22;5078160;28;20078;-66
2023/02/28 08:48:42;;;;;;;5.75;3.40;;;;;;;15.04;36.48;101430.22;5073697;28;20181;-67
2023/02/28 08:51:12;;;;;;;6.80;3.83;;;;;;;15.00;36.40;101423.31;5074131;28;20048;-67
2023/02/28 08:53:41;;;;;;;7.78;3.58;;;;;;;15.02;36.51;101434.81;5073845;28;20048;-67
2023/02/28 08:56:13;;;;;;;6.57;3.70;;;;;;;15.02;36.77;101433.00;5073832;28;20052;-68
2023/02/28 08:58:43;;;;;;;6.35;3.38;;;;;;;15.02;36.50;101426.75;5073762;28;20052;-67
2023/02/28 09:01:15;;;;;;;6.05;3.50;;;;;;;15.01;36.51;101425.03;5073805;28;20127;-66
2023/02/28 09:03:47;;;;;;;7.13;3.83;;;;;;;15.01;36.43;101425.03;5073712;28;20471;-67
2023/02/28 09:06:18;;;;;;;5.80;3.25;;;;;;;15.00;36.55;101429.53;5073741;28;20049;-67
2023/02/28 09:08:46;;;;;;;6.63;3.65;;;;;;;14.98;36.46;101428.78;5073709;28;20056;-68
2023/02/28 09:11:18;;;;;;;5.57;3.53;;;;;;;14.99;36.66;101421.56;5073843;28;20048;-67
2023/02/28 09:13:46;;;;;;;6.55;3.42;;;;;;;15.00;36.54;101426.00;5073681;28;20045;-67
2023/02/28 09:16:16;;;;;;;6.65;3.70;;;;;;;14.99;36.39;101426.94;5073949;28;20123;-68
2023/02/28 09:18:45;;;;;;;6.75;3.35;;;;;;;14.99;36.40;101427.81;5073469;28;20528;-68
2023/02/28 09:21:15;;;;;;;6.90;3.38;;;;;;;14.99;36.43;101426.94;5073512;28;20566;-68
2023/02/28 09:23:46;;;;;;;6.90;3.50;;;;;;;14.99;36.44;101432.31;5073228;28;20131;-68
2023/02/28 09:26:18;;;;;;;8.25;3.40;;;;;;;14.98;36.42;101430.59;5073517;28;20098;-67
2023/02/28 09:28:46;;;;;;;5.20;3.03;;;;;;;14.97;36.40;101424.38;5072950;28;20080;-67
2023/02/28 09:31:15;;;;;;;6.22;3.70;;;;;;;14.97;36.45;101428.88;5073272;28;20549;-67
2023/02/28 09:33:44;;;;;;;5.63;3.08;;;;;;;14.97;36.48;101432.41;5073200;28;20106;-67
2023/02/28 09:36:13;;;;;;;6.00;3.33;;;;;;;14.97;36.51;101439.63;5072925;28;20094;-67
2023/02/28 09:38:42;;;;;;;5.47;3.38;;;;;;;14.97;36.36;101434.25;5072832;28;20052;-67
2023/02/28 09:41:18;;;;;;;6.07;3.38;;;;;;;14.96;36.59;101440.53;5072945;28;20048;-67
2023/02/28 09:43:51;;;;;;;5.78;3.45;;;;;;;14.96;36.40;101433.38;5072479;28;20048;-68
2023/02/28 09:46:26;;;;;;;;;;;;;;;14.96;36.35;101436.06;5073206;28;20051;-67
2023/02/28 09:48:56;;;;;;;5.75;3.20;;;;;;;14.96;36.63;101430.69;5072648;28;20412;-67
2023/02/28 09:51:37;;;;;;;5.15;3.10;;;;;;;14.97;36.54;101431.56;5072809;28;20048;-67
2023/02/28 09:54:06;;;;;;;7.38;3.50;;;;;;;14.98;36.49;101430.59;5072411;28;20524;-67
2023/02/28 09:56:40;;;;;;;6.45;3.47;;;;;;;14.99;36.22;101429.63;5072650;28;20049;-68
2023/02/28 09:59:19;;;;;;;6.50;3.17;;;;;;;14.99;36.14;101432.31;5072641;28;20494;-68
2023/02/28 10:01:57;;;;;;;5.55;3.00;;;;;;;14.98;36.03;101423.41;5072863;28;20131;-67
2023/02/28 10:04:41;;;;;;;4.95;2.88;;;;;;;14.96;36.36;101421.75;5072292;28;20072;-67
2023/02/28 10:07:21;;;;;;;6.30;3.17;;;;;;;14.97;36.57;101423.50;5072517;28;20074;-67
2023/02/28 10:09:57;;;;;;;6.32;3.30;;;;;;;15.01;36.24;101420.53;5072615;28;20465;-69
2023/02/28 10:12:30;;;;;;;7.28;3.40;;;;;;;15.01;36.20;101420.53;5072499;28;20083;-67
2023/02/28 10:15:02;;;;;;;5.03;3.13;;;;;;;15.02;36.19;101419.56;5072423;28;20557;-67
2023/02/28 10:17:37;;;;;;;6.00;3.50;;;;;;;15.02;36.70;101416.00;5072114;28;20086;-68
2023/02/28 10:20:29;;;;;;;6.10;3.30;;;;;;;15.06;36.74;101412.19;5072359;28;20051;-67
2023/02/28 10:23:09;;;;;;;6.00;2.95;;;;;;;15.08;36.83;101412.97;5072277;28;20140;-69
2023/02/28 10:25:39;;;;;;;5.07;3.10;;;;;;;15.07;36.79;101414.78;5072006;28;20052;-68
2023/02/28 10:28:13;;;;;;;5.50;3.10;;;;;;;15.10;37.07;101411.91;5072214;28;20051;-67
2023/02/28 10:30:44;;;;;;;5.75;3.30;;;;;;;15.11;37.16;101396.66;5072059;28;20048;-68
2023/02/28 10:33:20;;;;;;;5.57;3.05;;;;;;;15.14;37.11;101410.75;5071959;28;20499;-68
2023/02/28 10:35:49;;;;;;;6.20;3.00;;;;;;;15.15;36.99;101406.22;5072172;28;20072;-68
2023/02/28 10:38:20;;;;;;;5.78;3.28;;;;;;;15.15;36.89;101399.06;5072008;28;20087;-68
2023/02/28 10:40:48;;;;;;;5.82;3.30;;;;;;;15.16;36.57;101394.56;5072016;28;20123;-68
2023/02/28 10:43:25;;;;;;;5.20;3.22;;;;;;;15.17;36.61;101394.47;5072089;28;20068;-68
2023/02/28 10:45:57;;;;;;;5.90;3.10;;;;;;;15.18;36.26;101390.81;5071987;28;20489;-68
2023/02/28 10:48:34;;;;;;;5.03;3.10;;;;;;;15.18;36.36;101381.88;5071914;28;20486;-66
2023/02/28 10:51:03;;;;;;;6.05;3.40;;;;;;;15.21;36.23;101381.69;5072019;28;20053;-67
2023/02/28 10:53:35;;;;;;;6.05;3.50;;;;;;;15.22;36.28;101378.03;5071677;28;20097;-68
2023/02/28 10:56:25;;;;;;;5.50;3.20;;;;;;;15.21;36.27;101379.00;5071469;28;20049;-67
2023/02/28 10:58:57;;;;;;;5.13;3.17;;;;;;;15.24;36.35;101376.09;5071486;28;20497;-67
2023/02/28 11:01:36;;;;;;;5.75;3.20;;;;;;;15.23;36.20;101382.44;5072020;28;20052;-68
2023/02/28 11:04:18;;;;;;;5.50;3.47;;;;;;;15.24;36.25;101384.16;5071529;28;20045;-68
2023/02/28 11:06:47;;;;;;;5.82;3.03;;;;;;;15.22;36.01;101372.66;5071710;28;20044;-68
2023/02/28 11:09:23;;;;;;;5.13;3.22;;;;;;;15.25;36.05;101379.66;5071449;28;20086;-67
2023/02/28 11:11:52;;;;;;;6.18;3.20;;;;;;;15.25;35.98;101379.66;5071905;28;20041;-68
2023/02/28 11:14:27;;;;;;;5.63;3.20;;;;;;;15.26;35.97;101376.03;5071601;28;20044;-67
2023/02/28 11:16:57;;;;;;;5.55;3.13;;;;;;;15.23;35.67;101377.06;5071298;28;20049;-67
2023/02/28 11:19:29;;;;;;;6.40;2.88;;;;;;;15.26;35.95;101371.53;5071551;28;20040;-67
2023/02/28 11:22:00;;;;;;;6.47;3.50;;;;;;;15.27;36.13;101369.69;5071809;28;20501;-67
2023/02/28 11:24:32;;;;;;;5.45;3.25;;;;;;;15.27;36.12;101367.00;5071510;28;20048;-67
2023/02/28 11:27:03;;;;;;;5.45;2.90;;;;;;;15.28;35.92;101364.22;5071845;28;20059;-68
2023/02/28 11:29:35;;;;;;;4.85;3.10;;;;;;;15.28;35.89;101371.44;5071932;28;20498;-69
2023/02/28 11:32:12;;;;;;;5.50;2.88;;;;;;;15.29;35.94;101370.47;5071467;28;20048;-69
2023/02/28 11:34:41;;;;;;;6.00;3.00;;;;;;;15.30;36.25;101358.75;5071533;28;20144;-67
2023/02/28 11:37:14;;;;;;;4.90;3.17;;;;;;;15.27;36.12;101357.13;5071143;28;20044;-67
2023/02/28 11:39:45;;;;;;;6.13;3.30;;;;;;;15.29;36.19;101360.56;5071504;28;20048;-68
2023/02/28 11:42:33;;;;;;;4.90;2.95;;;;;;;15.29;36.10;101365.09;5071391;28;20044;-67
2023/02/28 11:45:17;;;;;;;4.75;2.92;;;;;;;15.30;36.12;101362.31;5070946;28;20490;-68